Terminal Aerodrome Forecast
Issued by NWS Wilmington, OH

Current Version | Previous Version | Graphics & Text | Print | Product List | Glossary On
Versions: 1 2 3 4 5 6 7 8 9 10 11 12 13 14 15 16 17 18 19 20 21 22 23 24 25 26
951
FTUS41 KILN 080331 AAB
TAFILN
TAF AMD
KILN 080331Z 0804/0824 21007KT P6SM BKN070 OVC120
     FM081200 25006KT P6SM BKN040 OVC100
     FM081800 27010KT P6SM -SHRA OVC040
     FM082100 28011KT 5SM -RASN BR OVC025=

USA.gov is the U.S. government's official web portal to all federal, state and local government web resources and services.